Terminal Aerodrome Forecast
Issued by NWS Mt. Holly, NJ

Home | Current Version | Previous Version | Text Only | Print | Product List | Glossary On
Versions: 1 2 3 4 5 6 7 8 9 10 11 12 13 14 15 16 17 18 19 20 21 22 23 24 25
275
FTUS41 KPHI 271128
TAFILG
TAF
KILG 271128Z 2712/2812 28004KT P6SM SCT045
     FM271500 25006KT P6SM BKN050
     FM272100 18006KT P6SM BKN050 PROB30 2721/2723 4SM -TSRA
      OVC040CB
     FM280300 13004KT P6SM BKN050=

USA.gov is the U.S. government's official web portal to all federal, state and local government web resources and services.